Gsp King — ZDGY7 — position and weather

sailwx.info

Track history (hours):
 
Tides and Currents Weather Stations Pressure Air Temp Water Temp Dewpoint Dewpoint Depression Visibility Wind Speed Wind Dir Waves Ship Positions

Gsp King

Last reported at 2017-Oct-17 17:00 UTC. Time now 2017-Oct-17 17:11 UTC.
Position N 44°10' E 028°39'.

Length 53 m; draft 5.8 m.

Type: Tug. MMSI: 236290000.

Date/timePositionNaut miles runAvg speedWind from/ knotsBaromVisibWave heightAir tempDewpointWater temp
2017-Oct-17 17:00N 44°10' E 028°39'0 0.0
2017-Oct-17 16:30N 44°10' E 028°39'0 0.0
2017-Oct-17 16:00N 44°10' E 028°39'0 0.0
2017-Oct-17 15:27N 44°10' E 028°39'0 0.0
2017-Oct-17 15:00N 44°10' E 028°39'0 0.0
2017-Oct-17 14:30N 44°10' E 028°39'0 0.0
2017-Oct-17 14:00N 44°10' E 028°39'0 0.0
2017-Oct-17 13:27N 44°10' E 028°39'0 0.0
2017-Oct-17 13:00N 44°10' E 028°39'0 0.0
2017-Oct-17 12:30N 44°10' E 028°39'0 0.0
2017-Oct-17 11:59N 44°10' E 028°39'0 0.0
2017-Oct-17 11:29N 44°10' E 028°39'0 0.0
2017-Oct-17 10:59N 44°10' E 028°39'0 0.0
2017-Oct-17 10:26N 44°10' E 028°39'0 0.0
2017-Oct-17 09:59N 44°10' E 028°39'0 0.0
2017-Oct-17 09:29N 44°10' E 028°39'0 0.0
2017-Oct-17 08:59N 44°10' E 028°39'0 0.0
2017-Oct-17 08:29N 44°10' E 028°39'0 0.0
2017-Oct-17 07:59N 44°10' E 028°39'0 0.1
2017-Oct-17 07:29N 44°10' E 028°39'0 0.0
2017-Oct-17 06:59N 44°10' E 028°39'0 0.0
2017-Oct-17 06:26N 44°10' E 028°39'0 0.0
2017-Oct-17 05:56N 44°10' E 028°39'0 0.0
2017-Oct-17 05:29N 44°10' E 028°39'0 0.0
2017-Oct-17 04:59N 44°10' E 028°39'0 0.0
2017-Oct-17 04:29N 44°10' E 028°39'0 0.0
2017-Oct-17 03:56N 44°10' E 028°39'0 0.0
2017-Oct-17 03:14N 44°10' E 028°39'0 0.0
2017-Oct-17 02:59N 44°10' E 028°39'0 0.0
2017-Oct-17 02:29N 44°10' E 028°39'0 0.0
2017-Oct-17 01:59N 44°10' E 028°39'0 0.0
2017-Oct-17 01:29N 44°10' E 028°39'0 0.0
2017-Oct-17 00:59N 44°10' E 028°39'0 0.1
2017-Oct-17 00:29N 44°10' E 028°39'0 0.0
2017-Oct-16 23:59N 44°10' E 028°39'0 0.0
2017-Oct-16 23:29N 44°10' E 028°39'0 0.0
2017-Oct-16 22:59N 44°10' E 028°39'0 0.0
2017-Oct-16 22:26N 44°10' E 028°39'0 0.0
2017-Oct-16 21:59N 44°10' E 028°39'0 0.0
2017-Oct-16 21:29N 44°10' E 028°39'0 0.0
2017-Oct-16 20:59N 44°10' E 028°39'0 0.0
2017-Oct-16 20:29N 44°10' E 028°39'0 0.0
2017-Oct-16 19:59N 44°10' E 028°39'0 0.0
2017-Oct-16 19:29N 44°10' E 028°39'0 0.0
2017-Oct-16 18:59N 44°10' E 028°39'0 0.0
2017-Oct-16 18:29N 44°10' E 028°39'0 0.0
2017-Oct-16 17:59N 44°10' E 028°39'0 0.0
2017-Oct-16 17:20N 44°10' E 028°39'0 0.0
2017-Oct-16 16:59N 44°10' E 028°39'0 0.0
2017-Oct-16 16:29N 44°10' E 028°39'0 0.0
2017-Oct-16 15:56N 44°10' E 028°39'0 0.0
2017-Oct-16 15:26N 44°10' E 028°39'0 0.0
2017-Oct-16 14:59N 44°10' E 028°39'0 0.0
2017-Oct-16 13:59N 44°10' E 028°39'0 0.0
2017-Oct-16 13:29N 44°10' E 028°39'0 0.0
2017-Oct-16 13:00N 44°10' E 028°39'0 0.5
2017-Oct-16 12:30N 44°10' E 028°39'2 4.5
2017-Oct-16 12:00N 44°08' E 028°41'3 5.2
2017-Oct-16 11:30N 44°07' E 028°44'4 8.4
2017-Oct-16 11:00N 44°10' E 028°49'4 8.7
2017-Oct-16 10:30N 44°12' E 028°53'4 9.0
2017-Oct-16 10:00N 44°15' E 028°58'5 9.1
2017-Oct-16 09:30N 44°18' E 029°03'5 9.3
2017-Oct-16 09:00N 44°21' E 029°08'5 9.4
2017-Oct-16 08:30N 44°24' E 029°13'5 9.3
2017-Oct-16 08:00N 44°27' E 029°18'5 9.2
2017-Oct-16 07:30N 44°30' E 029°23'4 7.4
2017-Oct-16 07:00N 44°33' E 029°27'1 2.1
2017-Oct-16 06:27N 44°32' E 029°28'2 3.4
2017-Oct-16 06:00N 44°32' E 029°30'2 3.9
2017-Oct-16 05:30N 44°32' E 029°33'3 0.4
2017-Oct-15 23:01N 44°29' E 029°34'0 0.0
2017-Oct-15 22:31N 44°29' E 029°34'0 0.0
2017-Oct-15 22:00N 44°29' E 029°34'0 0.0
2017-Oct-15 21:30N 44°29' E 029°34'0 0.0
2017-Oct-15 20:54N 44°29' E 029°34'0 0.0
2017-Oct-15 20:27N 44°29' E 029°34'0 0.0
2017-Oct-15 20:00N 44°29' E 029°34'0 0.0
2017-Oct-15 19:30N 44°29' E 029°34'0 0.0
2017-Oct-15 18:57N 44°29' E 029°34'0 0.0
2017-Oct-15 18:30N 44°29' E 029°34'0 0.0
2017-Oct-15 18:00N 44°29' E 029°34'0 0.0
2017-Oct-15 17:27N 44°29' E 029°34'0 0.0
2017-Oct-15 17:00N 44°29' E 029°34'0 0.0
2017-Oct-15 16:30N 44°29' E 029°34'0 0.0
2017-Oct-15 16:00N 44°29' E 029°34'0 0.0
2017-Oct-15 15:24N 44°29' E 029°34'0 0.1
2017-Oct-15 15:00N 44°29' E 029°34'3 3.2
2017-Oct-15 14:00N 44°29' E 029°38'4 7.7
2017-Oct-15 13:30N 44°31' E 029°34'0 0.5
2017-Oct-15 13:00N 44°31' E 029°34'0 0.0
2017-Oct-15 12:06N 44°31' E 029°34'0 0.3
2017-Oct-15 11:57N 44°31' E 029°34'0 0.5
2017-Oct-15 11:26N 44°31' E 029°33'3 6.2
2017-Oct-15 11:00N 44°32' E 029°30'2 4.5
2017-Oct-15 10:29N 44°33' E 029°27'1 2.6
2017-Oct-15 10:00N 44°32' E 029°28'0 0.0
2017-Oct-15 09:30N 44°32' E 029°28'0 0.1
2017-Oct-15 08:54N 44°32' E 029°28'0 0.0
2017-Oct-15 08:30N 44°32' E 029°28'0 0.0
2017-Oct-15 08:00N 44°32' E 029°28'0 0.0
2017-Oct-15 07:27N 44°32' E 029°28'0 0.0
2017-Oct-15 07:00N 44°32' E 029°28'0 0.0
2017-Oct-15 06:30N 44°32' E 029°28'0 0.0
2017-Oct-15 06:00N 44°32' E 029°28'1 2.7
2017-Oct-15 05:31N 44°33' E 029°27'4 8.8
2017-Oct-15 05:00N 44°36' E 029°22'0 0.4
2017-Oct-15 04:01N 44°36' E 029°22'0 0.2
2017-Oct-15 03:55N 44°36' E 029°22'0 0.9
2017-Oct-15 03:30N 44°36' E 029°21'1 3.0
2017-Oct-15 03:01N 44°35' E 029°19'0 0.1
2017-Oct-15 02:31N 44°35' E 029°19'0 0.0
2017-Oct-15 02:01N 44°35' E 029°19'0 0.0
2017-Oct-15 01:31N 44°35' E 029°19'0 0.0
2017-Oct-15 01:00N 44°35' E 029°19'0 0.0
2017-Oct-15 00:30N 44°35' E 029°19'0 0.0
2017-Oct-15 00:00N 44°35' E 029°19'0 0.0
2017-Oct-14 23:31N 44°35' E 029°19'0 0.0
2017-Oct-14 23:01N 44°35' E 029°19'0 0.0
2017-Oct-14 22:30N 44°35' E 029°19'0 0.0
2017-Oct-14 22:00N 44°35' E 029°19'0 0.0
2017-Oct-14 21:31N 44°35' E 029°19'0 0.1
2017-Oct-14 21:00N 44°35' E 029°19'4 8.2
2017-Oct-14 20:31N 44°34' E 029°24'2 0.4
2017-Oct-14 15:03N 44°33' E 029°27'0 0.2
2017-Oct-14 15:01N 44°33' E 029°27'0 0.0
2017-Oct-14 14:30N 44°33' E 029°27'1 1.4
2017-Oct-14 14:00N 44°33' E 029°28'5 0.6
2017-Oct-14 06:43N 44°31' E 029°34'3 4.6
2017-Oct-14 06:00N 44°32' E 029°29'1 0.8
2017-Oct-14 04:42N 44°32' E 029°28'0 0.1
2017-Oct-14 03:46N 44°32' E 029°28'1 5.4
2017-Oct-14 03:31N 44°32' E 029°26'2 0.2
2017-Oct-13 18:59N 44°33' E 029°23'3 6.8
2017-Oct-13 18:30N 44°32' E 029°28'0 0.5
2017-Oct-13 17:56N 44°32' E 029°28'0 0.1
2017-Oct-13 17:14N 44°32' E 029°28'4 7.6
2017-Oct-13 16:46N 44°30' E 029°24'2 8.5
2017-Oct-13 16:30N 44°28' E 029°22'4 8.7
2017-Oct-13 16:01N 44°26' E 029°17'4 8.4
2017-Oct-13 15:31N 44°23' E 029°12'4 8.2
2017-Oct-13 15:00N 44°21' E 029°08'4 8.6
2017-Oct-13 14:30N 44°18' E 029°03'4 8.7
2017-Oct-13 14:01N 44°15' E 028°58'4 8.9
2017-Oct-13 13:30N 44°13' E 028°53'4 9.0
2017-Oct-13 13:01N 44°10' E 028°48'5 9.2
2017-Oct-13 12:31N 44°06' E 028°44'3 6.6
2017-Oct-13 12:00N 44°08' E 028°40'2 3.5
2017-Oct-13 11:30N 44°10' E 028°39'0 0.0
2017-Oct-13 11:00N 44°10' E 028°39'0 0.0
2017-Oct-13 10:30N 44°10' E 028°39'0 0.0
2017-Oct-13 10:00N 44°10' E 028°39'0 0.0
2017-Oct-13 09:30N 44°10' E 028°39'0 0.0
2017-Oct-13 09:00N 44°10' E 028°39'0 0.0
2017-Oct-13 08:31N 44°10' E 028°39'0 0.0
2017-Oct-13 08:01N 44°10' E 028°39'0 0.0
2017-Oct-13 07:30N 44°10' E 028°39'0 0.0
2017-Oct-13 07:00N 44°10' E 028°39'0 0.0
2017-Oct-13 06:31N 44°10' E 028°39'0 0.0
2017-Oct-13 06:00N 44°10' E 028°39'0 0.0
2017-Oct-13 05:31N 44°10' E 028°39'0 0.0
2017-Oct-13 05:00N 44°10' E 028°39'0 0.0
2017-Oct-13 04:30N 44°10' E 028°39'0 0.0
2017-Oct-13 04:00N 44°10' E 028°39'0 0.0
2017-Oct-13 03:30N 44°10' E 028°39'0 0.0
2017-Oct-13 03:00N 44°10' E 028°39'0 0.0
2017-Oct-13 02:31N 44°10' E 028°39'0 0.0
2017-Oct-13 02:00N 44°10' E 028°39'0 0.0
2017-Oct-13 01:30N 44°10' E 028°39'0 0.0
2017-Oct-13 01:00N 44°10' E 028°39'0 0.0
2017-Oct-13 00:30N 44°10' E 028°39'0 0.0
2017-Oct-13 00:00N 44°10' E 028°39'0 0.0
2017-Oct-12 23:30N 44°10' E 028°39'0 0.0
2017-Oct-12 23:01N 44°10' E 028°39'0 0.0
2017-Oct-12 22:31N 44°10' E 028°39'0 0.0
2017-Oct-12 22:00N 44°10' E 028°39'0 0.0
2017-Oct-12 21:30N 44°10' E 028°39'0 0.0
2017-Oct-12 21:00N 44°10' E 028°39'0 0.0
2017-Oct-12 20:31N 44°10' E 028°39'0 0.0
2017-Oct-12 20:01N 44°10' E 028°39'0 0.0
2017-Oct-12 19:30N 44°10' E 028°39'0 0.0
2017-Oct-12 19:01N 44°10' E 028°39'0 0.1
2017-Oct-12 18:31N 44°10' E 028°39'0 0.1
2017-Oct-12 18:00N 44°10' E 028°39'0 0.0
2017-Oct-12 17:31N 44°10' E 028°39'0 0.0
2017-Oct-12 17:00N 44°10' E 028°39'0 0.0
2017-Oct-12 16:31N 44°10' E 028°39'0 0.0
2017-Oct-12 16:00N 44°10' E 028°39'0 0.0
2017-Oct-12 15:30N 44°10' E 028°39'0 0.0
2017-Oct-12 15:00N 44°10' E 028°39'0 0.0
2017-Oct-12 14:30N 44°10' E 028°39'0 0.0
2017-Oct-12 14:00N 44°10' E 028°39'0 0.0
2017-Oct-12 13:30N 44°10' E 028°39'0 0.0
2017-Oct-12 13:00N 44°10' E 028°39'0 0.0
2017-Oct-12 12:30N 44°10' E 028°39'0 0.0
2017-Oct-12 12:00N 44°10' E 028°39'0 0.1
2017-Oct-12 11:30N 44°10' E 028°39'0 0.0
2017-Oct-12 11:01N 44°10' E 028°39'0 0.0
2017-Oct-12 10:30N 44°10' E 028°39'0 0.0
2017-Oct-12 10:00N 44°10' E 028°39'0 0.0
2017-Oct-12 09:30N 44°10' E 028°39'0 0.0
2017-Oct-12 09:01N 44°10' E 028°39'0 0.0
2017-Oct-12 08:31N 44°10' E 028°39'0 0.0
2017-Oct-12 08:00N 44°10' E 028°39'0 0.0
2017-Oct-12 07:31N 44°10' E 028°39'0 0.0
2017-Oct-12 07:00N 44°10' E 028°39'0 0.0
2017-Oct-12 06:30N 44°10' E 028°39'0 0.0
2017-Oct-12 06:00N 44°10' E 028°39'0 0.0
2017-Oct-12 05:31N 44°10' E 028°39'0 0.0
2017-Oct-12 05:00N 44°10' E 028°39'0 0.0
2017-Oct-12 04:30N 44°10' E 028°39'0 0.0
2017-Oct-12 04:00N 44°10' E 028°39'0 0.0
2017-Oct-12 03:30N 44°10' E 028°39'0 0.0
2017-Oct-12 03:01N 44°10' E 028°39'0 0.0
2017-Oct-12 02:30N 44°10' E 028°39'0 0.0
2017-Oct-12 02:00N 44°10' E 028°39'0 0.0
2017-Oct-12 01:31N 44°10' E 028°39'0 0.1
2017-Oct-12 01:01N 44°10' E 028°39'0 0.1
2017-Oct-12 00:31N 44°10' E 028°39'0 0.0
2017-Oct-12 00:01N 44°10' E 028°39'0 0.0
2017-Oct-11 23:31N 44°10' E 028°39'0 0.0
2017-Oct-11 23:00N 44°10' E 028°39'0 0.0
2017-Oct-11 22:31N 44°10' E 028°39'0 0.0
2017-Oct-11 22:01N 44°10' E 028°39'0 0.0
2017-Oct-11 21:30N 44°10' E 028°39'0 0.0
2017-Oct-11 21:00N 44°10' E 028°39'0 0.0
2017-Oct-11 20:30N 44°10' E 028°39'0 0.0
2017-Oct-11 20:00N 44°10' E 028°39'0 0.0
2017-Oct-11 19:30N 44°10' E 028°39'0 0.0
2017-Oct-11 19:00N 44°10' E 028°39'0 0.0
2017-Oct-11 18:31N 44°10' E 028°39'0 0.0
2017-Oct-11 18:01N 44°10' E 028°39'0 0.0
2017-Oct-11 17:30N 44°10' E 028°39'0 0.0
2017-Oct-11 17:01N 44°10' E 028°39'0 0.0
2017-Oct-10 23:59N 44°10' E 028°39'0 0.0
2017-Oct-10 23:29N 44°10' E 028°39'0 0.0
2017-Oct-10 22:59N 44°10' E 028°39'0 0.0
2017-Oct-10 22:29N 44°10' E 028°39'0 0.0
2017-Oct-10 21:59N 44°10' E 028°39'0 0.0
2017-Oct-10 21:26N 44°10' E 028°39'0 0.0
2017-Oct-10 21:00N 44°10' E 028°39'1 1.4
2017-Oct-10 20:30N 44°09' E 028°40'3 6.4
2017-Oct-10 20:00N 44°07' E 028°42'3 5.7
2017-Oct-10 19:30N 44°07' E 028°46'3 6.8
2017-Oct-10 19:00N 44°08' E 028°50'4 7.1
2017-Oct-10 18:30N 44°11' E 028°53'4 7.5
2017-Oct-10 18:00N 44°14' E 028°57'4 7.6
2017-Oct-10 17:30N 44°17' E 028°60'4 7.1
2017-Oct-10 17:00N 44°19' E 029°03'4 7.2
2017-Oct-10 16:30N 44°22' E 029°06'4 8.2
2017-Oct-10 16:00N 44°25' E 029°10'4 9.0
2017-Oct-10 15:30N 44°29' E 029°14'4 8.6
2017-Oct-10 15:00N 44°32' E 029°18'5 4.8
2017-Oct-10 14:00N 44°36' E 029°22'4 6.0
2017-Oct-10 13:24N 44°33' E 029°23'0 0.3
2017-Oct-10 12:54N 44°33' E 029°24'0 0.0
2017-Oct-10 12:18N 44°33' E 029°24'0 0.0
2017-Oct-10 12:00N 44°33' E 029°24'0 0.0
2017-Oct-10 11:27N 44°33' E 029°24'0 0.0
2017-Oct-10 10:57N 44°33' E 029°24'0 0.0
2017-Oct-10 10:30N 44°33' E 029°24'0 0.0
2017-Oct-10 09:27N 44°33' E 029°24'0 0.0
2017-Oct-10 08:24N 44°33' E 029°24'0 0.0
2017-Oct-10 07:42N 44°33' E 029°24'1 2.7
2017-Oct-10 07:30N 44°33' E 029°24'6 8.5
2017-Oct-10 06:48N 44°32' E 029°33'3 0.2
2017-Oct-09 10:19N 44°32' E 029°28'0 0.1
2017-Oct-09 09:56N 44°32' E 029°28'0 0.1
2017-Oct-09 09:30N 44°32' E 029°28'1 2.3
2017-Oct-09 09:00N 44°33' E 029°27'0 0.0
2017-Oct-09 08:29N 44°33' E 029°27'0 0.2
2017-Oct-09 08:00N 44°33' E 029°27'0 0.0
2017-Oct-09 07:30N 44°33' E 029°27'0 0.3
2017-Oct-09 07:00N 44°33' E 029°27'7 7.3
2017-Oct-09 05:59N 44°37' E 029°18'3 6.1
2017-Oct-09 05:30N 44°38' E 029°14'1 2.7
2017-Oct-09 05:00N 44°39' E 029°13'3 6.7
2017-Oct-09 04:30N 44°41' E 029°09'0 0.0
2017-Oct-09 03:58N 44°41' E 029°09'0 0.0
2017-Oct-09 03:28N 44°41' E 029°09'0 0.0
2017-Oct-09 02:58N 44°41' E 029°09'0 0.0
2017-Oct-09 02:28N 44°41' E 029°09'0 0.0
2017-Oct-09 01:58N 44°41' E 029°09'0 0.0
2017-Oct-09 01:28N 44°41' E 029°09'0 0.0
2017-Oct-09 00:55N 44°41' E 029°09'0 0.0
2017-Oct-09 00:28N 44°41' E 029°09'0 0.0
2017-Oct-08 23:58N 44°41' E 029°09'0 0.0
2017-Oct-08 23:28N 44°41' E 029°09'0 0.0
2017-Oct-08 22:58N 44°41' E 029°09'0 0.0
2017-Oct-08 22:28N 44°41' E 029°09'0 0.0
2017-Oct-08 21:58N 44°41' E 029°09'0 0.0
2017-Oct-08 21:25N 44°41' E 029°09'0 0.0
2017-Oct-08 20:58N 44°41' E 029°09'0 0.0
2017-Oct-08 20:19N 44°41' E 029°09'0 0.0
2017-Oct-08 19:58N 44°41' E 029°09'0 0.0
2017-Oct-08 19:28N 44°41' E 029°09'0 0.0
2017-Oct-08 18:58N 44°41' E 029°09'0 0.0
2017-Oct-08 18:25N 44°41' E 029°09'0 0.0
2017-Oct-08 17:55N 44°41' E 029°09'0 0.0
2017-Oct-08 17:28N 44°41' E 029°09'0 0.1
2017-Oct-08 16:58N 44°41' E 029°09'0 0.0
2017-Oct-08 16:22N 44°41' E 029°09'0 0.0
2017-Oct-08 15:55N 44°41' E 029°09'0 0.0
2017-Oct-08 15:28N 44°41' E 029°09'0 0.1
2017-Oct-08 14:55N 44°41' E 029°09'0 0.1
2017-Oct-08 14:22N 44°41' E 029°09'0 0.0
2017-Oct-08 13:58N 44°41' E 029°09'0 0.0
2017-Oct-08 13:28N 44°41' E 029°09'0 0.0
2017-Oct-08 12:55N 44°41' E 029°09'0 0.0
2017-Oct-08 12:28N 44°41' E 029°09'0 0.0
2017-Oct-08 11:58N 44°41' E 029°09'  
Track history (hours):
 
Tides and Currents Weather Stations Pressure Air Temp Water Temp Dewpoint Dewpoint Depression Visibility Wind Speed Wind Dir Waves Ship Positions

Gsp King

Last reported at 2017-Oct-17 17:00 UTC. Time now 2017-Oct-17 17:11 UTC.
Position N 44°10' E 028°39'.

Length 53 m; draft 5.8 m.

Type: Tug. MMSI: 236290000.

Date/timePositionNaut miles runAvg speedWind from/ knotsBaromVisibWave heightAir tempDewpointWater temp
2017-Oct-17 17:00N 44°10' E 028°39'0 0.0
2017-Oct-17 16:30N 44°10' E 028°39'0 0.0
2017-Oct-17 16:00N 44°10' E 028°39'0 0.0
2017-Oct-17 15:27N 44°10' E 028°39'0 0.0
2017-Oct-17 15:00N 44°10' E 028°39'0 0.0
2017-Oct-17 14:30N 44°10' E 028°39'0 0.0
2017-Oct-17 14:00N 44°10' E 028°39'0 0.0
2017-Oct-17 13:27N 44°10' E 028°39'0 0.0
2017-Oct-17 13:00N 44°10' E 028°39'0 0.0
2017-Oct-17 12:30N 44°10' E 028°39'0 0.0
2017-Oct-17 11:59N 44°10' E 028°39'0 0.0
2017-Oct-17 11:29N 44°10' E 028°39'0 0.0
2017-Oct-17 10:59N 44°10' E 028°39'0 0.0
2017-Oct-17 10:26N 44°10' E 028°39'0 0.0
2017-Oct-17 09:59N 44°10' E 028°39'0 0.0
2017-Oct-17 09:29N 44°10' E 028°39'0 0.0
2017-Oct-17 08:59N 44°10' E 028°39'0 0.0
2017-Oct-17 08:29N 44°10' E 028°39'0 0.0
2017-Oct-17 07:59N 44°10' E 028°39'0 0.1
2017-Oct-17 07:29N 44°10' E 028°39'0 0.0
2017-Oct-17 06:59N 44°10' E 028°39'0 0.0
2017-Oct-17 06:26N 44°10' E 028°39'0 0.0
2017-Oct-17 05:56N 44°10' E 028°39'0 0.0
2017-Oct-17 05:29N 44°10' E 028°39'0 0.0
2017-Oct-17 04:59N 44°10' E 028°39'0 0.0
2017-Oct-17 04:29N 44°10' E 028°39'0 0.0
2017-Oct-17 03:56N 44°10' E 028°39'0 0.0
2017-Oct-17 03:14N 44°10' E 028°39'0 0.0
2017-Oct-17 02:59N 44°10' E 028°39'0 0.0
2017-Oct-17 02:29N 44°10' E 028°39'0 0.0
2017-Oct-17 01:59N 44°10' E 028°39'0 0.0
2017-Oct-17 01:29N 44°10' E 028°39'0 0.0
2017-Oct-17 00:59N 44°10' E 028°39'0 0.1
2017-Oct-17 00:29N 44°10' E 028°39'0 0.0
2017-Oct-16 23:59N 44°10' E 028°39'0 0.0
2017-Oct-16 23:29N 44°10' E 028°39'0 0.0
2017-Oct-16 22:59N 44°10' E 028°39'0 0.0
2017-Oct-16 22:26N 44°10' E 028°39'0 0.0
2017-Oct-16 21:59N 44°10' E 028°39'0 0.0
2017-Oct-16 21:29N 44°10' E 028°39'0 0.0
2017-Oct-16 20:59N 44°10' E 028°39'0 0.0
2017-Oct-16 20:29N 44°10' E 028°39'0 0.0
2017-Oct-16 19:59N 44°10' E 028°39'0 0.0
2017-Oct-16 19:29N 44°10' E 028°39'0 0.0
2017-Oct-16 18:59N 44°10' E 028°39'0 0.0
2017-Oct-16 18:29N 44°10' E 028°39'0 0.0
2017-Oct-16 17:59N 44°10' E 028°39'0 0.0
2017-Oct-16 17:20N 44°10' E 028°39'0 0.0
2017-Oct-16 16:59N 44°10' E 028°39'0 0.0
2017-Oct-16 16:29N 44°10' E 028°39'0 0.0
2017-Oct-16 15:56N 44°10' E 028°39'0 0.0
2017-Oct-16 15:26N 44°10' E 028°39'0 0.0
2017-Oct-16 14:59N 44°10' E 028°39'0 0.0
2017-Oct-16 13:59N 44°10' E 028°39'0 0.0
2017-Oct-16 13:29N 44°10' E 028°39'0 0.0
2017-Oct-16 13:00N 44°10' E 028°39'0 0.5
2017-Oct-16 12:30N 44°10' E 028°39'2 4.5
2017-Oct-16 12:00N 44°08' E 028°41'3 5.2
2017-Oct-16 11:30N 44°07' E 028°44'4 8.4
2017-Oct-16 11:00N 44°10' E 028°49'4 8.7
2017-Oct-16 10:30N 44°12' E 028°53'4 9.0
2017-Oct-16 10:00N 44°15' E 028°58'5 9.1
2017-Oct-16 09:30N 44°18' E 029°03'5 9.3
2017-Oct-16 09:00N 44°21' E 029°08'5 9.4
2017-Oct-16 08:30N 44°24' E 029°13'5 9.3
2017-Oct-16 08:00N 44°27' E 029°18'5 9.2
2017-Oct-16 07:30N 44°30' E 029°23'4 7.4
2017-Oct-16 07:00N 44°33' E 029°27'1 2.1
2017-Oct-16 06:27N 44°32' E 029°28'2 3.4
2017-Oct-16 06:00N 44°32' E 029°30'2 3.9
2017-Oct-16 05:30N 44°32' E 029°33'3 0.4
2017-Oct-15 23:01N 44°29' E 029°34'0 0.0
2017-Oct-15 22:31N 44°29' E 029°34'0 0.0
2017-Oct-15 22:00N 44°29' E 029°34'0 0.0
2017-Oct-15 21:30N 44°29' E 029°34'0 0.0
2017-Oct-15 20:54N 44°29' E 029°34'0 0.0
2017-Oct-15 20:27N 44°29' E 029°34'0 0.0
2017-Oct-15 20:00N 44°29' E 029°34'0 0.0
2017-Oct-15 19:30N 44°29' E 029°34'0 0.0
2017-Oct-15 18:57N 44°29' E 029°34'0 0.0
2017-Oct-15 18:30N 44°29' E 029°34'0 0.0
2017-Oct-15 18:00N 44°29' E 029°34'0 0.0
2017-Oct-15 17:27N 44°29' E 029°34'0 0.0
2017-Oct-15 17:00N 44°29' E 029°34'0 0.0
2017-Oct-15 16:30N 44°29' E 029°34'0 0.0
2017-Oct-15 16:00N 44°29' E 029°34'0 0.0
2017-Oct-15 15:24N 44°29' E 029°34'0 0.1
2017-Oct-15 15:00N 44°29' E 029°34'3 3.2
2017-Oct-15 14:00N 44°29' E 029°38'4 7.7
2017-Oct-15 13:30N 44°31' E 029°34'0 0.5
2017-Oct-15 13:00N 44°31' E 029°34'0 0.0
2017-Oct-15 12:06N 44°31' E 029°34'0 0.3
2017-Oct-15 11:57N 44°31' E 029°34'0 0.5
2017-Oct-15 11:26N 44°31' E 029°33'3 6.2
2017-Oct-15 11:00N 44°32' E 029°30'2 4.5
2017-Oct-15 10:29N 44°33' E 029°27'1 2.6
2017-Oct-15 10:00N 44°32' E 029°28'0 0.0
2017-Oct-15 09:30N 44°32' E 029°28'0 0.1
2017-Oct-15 08:54N 44°32' E 029°28'0 0.0
2017-Oct-15 08:30N 44°32' E 029°28'0 0.0
2017-Oct-15 08:00N 44°32' E 029°28'0 0.0
2017-Oct-15 07:27N 44°32' E 029°28'0 0.0
2017-Oct-15 07:00N 44°32' E 029°28'0 0.0
2017-Oct-15 06:30N 44°32' E 029°28'0 0.0
2017-Oct-15 06:00N 44°32' E 029°28'1 2.7
2017-Oct-15 05:31N 44°33' E 029°27'4 8.8
2017-Oct-15 05:00N 44°36' E 029°22'0 0.4
2017-Oct-15 04:01N 44°36' E 029°22'0 0.2
2017-Oct-15 03:55N 44°36' E 029°22'0 0.9
2017-Oct-15 03:30N 44°36' E 029°21'1 3.0
2017-Oct-15 03:01N 44°35' E 029°19'0 0.1
2017-Oct-15 02:31N 44°35' E 029°19'0 0.0
2017-Oct-15 02:01N 44°35' E 029°19'0 0.0
2017-Oct-15 01:31N 44°35' E 029°19'0 0.0
2017-Oct-15 01:00N 44°35' E 029°19'0 0.0
2017-Oct-15 00:30N 44°35' E 029°19'0 0.0
2017-Oct-15 00:00N 44°35' E 029°19'0 0.0
2017-Oct-14 23:31N 44°35' E 029°19'0 0.0
2017-Oct-14 23:01N 44°35' E 029°19'0 0.0
2017-Oct-14 22:30N 44°35' E 029°19'0 0.0
2017-Oct-14 22:00N 44°35' E 029°19'0 0.0
2017-Oct-14 21:31N 44°35' E 029°19'0 0.1
2017-Oct-14 21:00N 44°35' E 029°19'4 8.2
2017-Oct-14 20:31N 44°34' E 029°24'2 0.4
2017-Oct-14 15:03N 44°33' E 029°27'0 0.2
2017-Oct-14 15:01N 44°33' E 029°27'0 0.0
2017-Oct-14 14:30N 44°33' E 029°27'1 1.4
2017-Oct-14 14:00N 44°33' E 029°28'5 0.6
2017-Oct-14 06:43N 44°31' E 029°34'3 4.6
2017-Oct-14 06:00N 44°32' E 029°29'1 0.8
2017-Oct-14 04:42N 44°32' E 029°28'0 0.1
2017-Oct-14 03:46N 44°32' E 029°28'1 5.4
2017-Oct-14 03:31N 44°32' E 029°26'2 0.2
2017-Oct-13 18:59N 44°33' E 029°23'3 6.8
2017-Oct-13 18:30N 44°32' E 029°28'0 0.5
2017-Oct-13 17:56N 44°32' E 029°28'0 0.1
2017-Oct-13 17:14N 44°32' E 029°28'4 7.6
2017-Oct-13 16:46N 44°30' E 029°24'2 8.5
2017-Oct-13 16:30N 44°28' E 029°22'4 8.7
2017-Oct-13 16:01N 44°26' E 029°17'4 8.4
2017-Oct-13 15:31N 44°23' E 029°12'4 8.2
2017-Oct-13 15:00N 44°21' E 029°08'4 8.6
2017-Oct-13 14:30N 44°18' E 029°03'4 8.7
2017-Oct-13 14:01N 44°15' E 028°58'4 8.9
2017-Oct-13 13:30N 44°13' E 028°53'4 9.0
2017-Oct-13 13:01N 44°10' E 028°48'5 9.2
2017-Oct-13 12:31N 44°06' E 028°44'3 6.6
2017-Oct-13 12:00N 44°08' E 028°40'2 3.5
2017-Oct-13 11:30N 44°10' E 028°39'0 0.0
2017-Oct-13 11:00N 44°10' E 028°39'0 0.0
2017-Oct-13 10:30N 44°10' E 028°39'0 0.0
2017-Oct-13 10:00N 44°10' E 028°39'0 0.0
2017-Oct-13 09:30N 44°10' E 028°39'0 0.0
2017-Oct-13 09:00N 44°10' E 028°39'0 0.0
2017-Oct-13 08:31N 44°10' E 028°39'0 0.0
2017-Oct-13 08:01N 44°10' E 028°39'0 0.0
2017-Oct-13 07:30N 44°10' E 028°39'0 0.0
2017-Oct-13 07:00N 44°10' E 028°39'0 0.0
2017-Oct-13 06:31N 44°10' E 028°39'0 0.0
2017-Oct-13 06:00N 44°10' E 028°39'0 0.0
2017-Oct-13 05:31N 44°10' E 028°39'0 0.0
2017-Oct-13 05:00N 44°10' E 028°39'0 0.0
2017-Oct-13 04:30N 44°10' E 028°39'0 0.0
2017-Oct-13 04:00N 44°10' E 028°39'0 0.0
2017-Oct-13 03:30N 44°10' E 028°39'0 0.0
2017-Oct-13 03:00N 44°10' E 028°39'0 0.0
2017-Oct-13 02:31N 44°10' E 028°39'0 0.0
2017-Oct-13 02:00N 44°10' E 028°39'0 0.0
2017-Oct-13 01:30N 44°10' E 028°39'0 0.0
2017-Oct-13 01:00N 44°10' E 028°39'0 0.0
2017-Oct-13 00:30N 44°10' E 028°39'0 0.0
2017-Oct-13 00:00N 44°10' E 028°39'0 0.0
2017-Oct-12 23:30N 44°10' E 028°39'0 0.0
2017-Oct-12 23:01N 44°10' E 028°39'0 0.0
2017-Oct-12 22:31N 44°10' E 028°39'0 0.0
2017-Oct-12 22:00N 44°10' E 028°39'0 0.0
2017-Oct-12 21:30N 44°10' E 028°39'0 0.0
2017-Oct-12 21:00N 44°10' E 028°39'0 0.0
2017-Oct-12 20:31N 44°10' E 028°39'0 0.0
2017-Oct-12 20:01N 44°10' E 028°39'0 0.0
2017-Oct-12 19:30N 44°10' E 028°39'0 0.0
2017-Oct-12 19:01N 44°10' E 028°39'0 0.1
2017-Oct-12 18:31N 44°10' E 028°39'0 0.1
2017-Oct-12 18:00N 44°10' E 028°39'0 0.0
2017-Oct-12 17:31N 44°10' E 028°39'0 0.0
2017-Oct-12 17:00N 44°10' E 028°39'0 0.0
2017-Oct-12 16:31N 44°10' E 028°39'0 0.0
2017-Oct-12 16:00N 44°10' E 028°39'0 0.0
2017-Oct-12 15:30N 44°10' E 028°39'0 0.0
2017-Oct-12 15:00N 44°10' E 028°39'0 0.0
2017-Oct-12 14:30N 44°10' E 028°39'0 0.0
2017-Oct-12 14:00N 44°10' E 028°39'0 0.0
2017-Oct-12 13:30N 44°10' E 028°39'0 0.0
2017-Oct-12 13:00N 44°10' E 028°39'0 0.0
2017-Oct-12 12:30N 44°10' E 028°39'0 0.0
2017-Oct-12 12:00N 44°10' E 028°39'0 0.1
2017-Oct-12 11:30N 44°10' E 028°39'0 0.0
2017-Oct-12 11:01N 44°10' E 028°39'0 0.0
2017-Oct-12 10:30N 44°10' E 028°39'0 0.0
2017-Oct-12 10:00N 44°10' E 028°39'0 0.0
2017-Oct-12 09:30N 44°10' E 028°39'0 0.0
2017-Oct-12 09:01N 44°10' E 028°39'0 0.0
2017-Oct-12 08:31N 44°10' E 028°39'0 0.0
2017-Oct-12 08:00N 44°10' E 028°39'0 0.0
2017-Oct-12 07:31N 44°10' E 028°39'0 0.0
2017-Oct-12 07:00N 44°10' E 028°39'0 0.0
2017-Oct-12 06:30N 44°10' E 028°39'0 0.0
2017-Oct-12 06:00N 44°10' E 028°39'0 0.0
2017-Oct-12 05:31N 44°10' E 028°39'0 0.0
2017-Oct-12 05:00N 44°10' E 028°39'0 0.0
2017-Oct-12 04:30N 44°10' E 028°39'0 0.0
2017-Oct-12 04:00N 44°10' E 028°39'0 0.0
2017-Oct-12 03:30N 44°10' E 028°39'0 0.0
2017-Oct-12 03:01N 44°10' E 028°39'0 0.0
2017-Oct-12 02:30N 44°10' E 028°39'0 0.0
2017-Oct-12 02:00N 44°10' E 028°39'0 0.0
2017-Oct-12 01:31N 44°10' E 028°39'0 0.1
2017-Oct-12 01:01N 44°10' E 028°39'0 0.1
2017-Oct-12 00:31N 44°10' E 028°39'0 0.0
2017-Oct-12 00:01N 44°10' E 028°39'0 0.0
2017-Oct-11 23:31N 44°10' E 028°39'0 0.0
2017-Oct-11 23:00N 44°10' E 028°39'0 0.0
2017-Oct-11 22:31N 44°10' E 028°39'0 0.0
2017-Oct-11 22:01N 44°10' E 028°39'0 0.0
2017-Oct-11 21:30N 44°10' E 028°39'0 0.0
2017-Oct-11 21:00N 44°10' E 028°39'0 0.0
2017-Oct-11 20:30N 44°10' E 028°39'0 0.0
2017-Oct-11 20:00N 44°10' E 028°39'0 0.0
2017-Oct-11 19:30N 44°10' E 028°39'0 0.0
2017-Oct-11 19:00N 44°10' E 028°39'0 0.0
2017-Oct-11 18:31N 44°10' E 028°39'0 0.0
2017-Oct-11 18:01N 44°10' E 028°39'0 0.0
2017-Oct-11 17:30N 44°10' E 028°39'0 0.0
2017-Oct-11 17:01N 44°10' E 028°39'0 0.0
2017-Oct-10 23:59N 44°10' E 028°39'0 0.0
2017-Oct-10 23:29N 44°10' E 028°39'0 0.0
2017-Oct-10 22:59N 44°10' E 028°39'0 0.0
2017-Oct-10 22:29N 44°10' E 028°39'0 0.0
2017-Oct-10 21:59N 44°10' E 028°39'0 0.0
2017-Oct-10 21:26N 44°10' E 028°39'0 0.0
2017-Oct-10 21:00N 44°10' E 028°39'1 1.4
2017-Oct-10 20:30N 44°09' E 028°40'3 6.4
2017-Oct-10 20:00N 44°07' E 028°42'3 5.7
2017-Oct-10 19:30N 44°07' E 028°46'3 6.8
2017-Oct-10 19:00N 44°08' E 028°50'4 7.1
2017-Oct-10 18:30N 44°11' E 028°53'4 7.5
2017-Oct-10 18:00N 44°14' E 028°57'4 7.6
2017-Oct-10 17:30N 44°17' E 028°60'4 7.1
2017-Oct-10 17:00N 44°19' E 029°03'4 7.2
2017-Oct-10 16:30N 44°22' E 029°06'4 8.2
2017-Oct-10 16:00N 44°25' E 029°10'4 9.0
2017-Oct-10 15:30N 44°29' E 029°14'4 8.6
2017-Oct-10 15:00N 44°32' E 029°18'5 4.8
2017-Oct-10 14:00N 44°36' E 029°22'4 6.0
2017-Oct-10 13:24N 44°33' E 029°23'0 0.3
2017-Oct-10 12:54N 44°33' E 029°24'0 0.0
2017-Oct-10 12:18N 44°33' E 029°24'0 0.0
2017-Oct-10 12:00N 44°33' E 029°24'0 0.0
2017-Oct-10 11:27N 44°33' E 029°24'0 0.0
2017-Oct-10 10:57N 44°33' E 029°24'0 0.0
2017-Oct-10 10:30N 44°33' E 029°24'0 0.0
2017-Oct-10 09:27N 44°33' E 029°24'0 0.0
2017-Oct-10 08:24N 44°33' E 029°24'0 0.0
2017-Oct-10 07:42N 44°33' E 029°24'1 2.7
2017-Oct-10 07:30N 44°33' E 029°24'6 8.5
2017-Oct-10 06:48N 44°32' E 029°33'3 0.2
2017-Oct-09 10:19N 44°32' E 029°28'0 0.1
2017-Oct-09 09:56N 44°32' E 029°28'0 0.1
2017-Oct-09 09:30N 44°32' E 029°28'1 2.3
2017-Oct-09 09:00N 44°33' E 029°27'0 0.0
2017-Oct-09 08:29N 44°33' E 029°27'0 0.2
2017-Oct-09 08:00N 44°33' E 029°27'0 0.0
2017-Oct-09 07:30N 44°33' E 029°27'0 0.3
2017-Oct-09 07:00N 44°33' E 029°27'7 7.3
2017-Oct-09 05:59N 44°37' E 029°18'3 6.1
2017-Oct-09 05:30N 44°38' E 029°14'1 2.7
2017-Oct-09 05:00N 44°39' E 029°13'3 6.7
2017-Oct-09 04:30N 44°41' E 029°09'0 0.0
2017-Oct-09 03:58N 44°41' E 029°09'0 0.0
2017-Oct-09 03:28N 44°41' E 029°09'0 0.0
2017-Oct-09 02:58N 44°41' E 029°09'0 0.0
2017-Oct-09 02:28N 44°41' E 029°09'0 0.0
2017-Oct-09 01:58N 44°41' E 029°09'0 0.0
2017-Oct-09 01:28N 44°41' E 029°09'0 0.0
2017-Oct-09 00:55N 44°41' E 029°09'0 0.0
2017-Oct-09 00:28N 44°41' E 029°09'0 0.0
2017-Oct-08 23:58N 44°41' E 029°09'0 0.0
2017-Oct-08 23:28N 44°41' E 029°09'0 0.0
2017-Oct-08 22:58N 44°41' E 029°09'0 0.0
2017-Oct-08 22:28N 44°41' E 029°09'0 0.0
2017-Oct-08 21:58N 44°41' E 029°09'0 0.0
2017-Oct-08 21:25N 44°41' E 029°09'0 0.0
2017-Oct-08 20:58N 44°41' E 029°09'0 0.0
2017-Oct-08 20:19N 44°41' E 029°09'0 0.0
2017-Oct-08 19:58N 44°41' E 029°09'0 0.0
2017-Oct-08 19:28N 44°41' E 029°09'0 0.0
2017-Oct-08 18:58N 44°41' E 029°09'0 0.0
2017-Oct-08 18:25N 44°41' E 029°09'0 0.0
2017-Oct-08 17:55N 44°41' E 029°09'0 0.0
2017-Oct-08 17:28N 44°41' E 029°09'0 0.1
2017-Oct-08 16:58N 44°41' E 029°09'0 0.0
2017-Oct-08 16:22N 44°41' E 029°09'0 0.0
2017-Oct-08 15:55N 44°41' E 029°09'0 0.0
2017-Oct-08 15:28N 44°41' E 029°09'0 0.1
2017-Oct-08 14:55N 44°41' E 029°09'0 0.1
2017-Oct-08 14:22N 44°41' E 029°09'0 0.0
2017-Oct-08 13:58N 44°41' E 029°09'0 0.0
2017-Oct-08 13:28N 44°41' E 029°09'0 0.0
2017-Oct-08 12:55N 44°41' E 029°09'0 0.0
2017-Oct-08 12:28N 44°41' E 029°09'0 0.0
2017-Oct-08 11:58N 44°41' E 029°09'  

Dump ship's entire track history